Time;durP1;ratioP1;P1;durP2;ratioP2;P2;SDS_P1;SDS_P2;PMS_P1;PMS_P2;Temp;Humidity;BMP_temperature;BMP_pressure;BME280_temperature;BME280_humidity;BME280_pressure;Samples;Min_cycle;Max_cycle;Signal;HPM_P1;HPM_P2
2022/02/04 00:20:20;;;;;;;;;;;;;;;17.73;36.46;101341.84;4996252;28;838;-63
2022/02/04 00:27:50;;;;;;;;;;;;;;;17.39;36.78;101343.03;4996139;28;1980;-62
2022/02/04 00:30:39;;;;;;;;;;;;;;;17.06;37.54;101355.97;5008737;28;964;-62
2022/02/04 00:33:05;;;;;;;;;;;;;;;16.87;37.84;101344.53;5014929;28;1652;-62
2022/02/04 00:35:34;;;;;;;;;;;;;;;16.55;38.45;101347.25;5015193;28;833;-62
2022/02/04 00:38:05;;;;;;;;;;;;;;;16.61;38.68;101343.47;5012302;28;799;-62
2022/02/04 00:40:36;;;;;;;;;;;;;;;17.42;36.90;101348.00;4995959;28;1000;-62
2022/02/04 00:43:05;;;;;;;;;;;;;;;17.06;37.43;101349.66;4999349;28;909;-61
2022/02/04 00:45:42;;;;;;;;;;;;;;;16.74;37.80;101339.47;5002151;28;1906;-61
2022/02/04 00:48:39;;;;;;;;;;;;;;;16.50;38.13;101337.03;5006022;28;924;-61
2022/02/04 00:53:30;;;;;;;;;;;;;;;17.04;37.43;101333.44;5015081;28;822;-63
2022/02/04 01:26:09;;;;;;;;;;;;;;;17.35;36.55;101366.63;5017774;28;1968;-63
2022/02/04 01:28:35;;;;;;;;;;;;;;;16.98;36.98;101369.38;5017959;28;898;-63
2022/02/04 01:31:01;;;;;;;;;;;;;;;16.79;37.54;101372.47;5005964;28;932;-62
2022/02/04 01:33:27;;;;;;;;;;;;;;;16.68;37.87;101376.22;5001946;28;739;-62
2022/02/04 01:35:55;;;;;;;;;;;;;;;16.83;37.62;101381.00;4999649;28;876;-62
2022/02/04 01:38:21;;;;;;;;;;;;;;;17.18;36.99;101368.69;4999182;28;834;-61
2022/02/04 01:40:46;;;;;;;;;;;;;;;17.52;36.14;101391.22;4999191;28;913;-61
2022/02/04 01:43:11;;;;;;;;;;;;;;;17.58;36.30;101383.81;4999508;28;801;-61
2022/02/04 01:45:37;;;;;;;;;;;;;;;17.65;36.08;101378.09;5008216;28;1961;-61
2022/02/04 01:48:02;;;;;;;;;;;;;;;17.31;36.60;101382.00;4999242;28;810;-61
2022/02/04 01:50:29;;;;;;;;;;;;;;;17.12;36.95;101378.81;4999274;28;827;-62
2022/02/04 01:52:58;;;;;;;;;;;;;;;16.80;37.59;101384.28;5015506;28;750;-62
2022/02/04 01:55:23;;;;;;;;;;;;;;;16.70;38.09;101385.00;5018125;28;811;-62
2022/02/04 01:57:49;;;;;;;;;;;;;;;16.91;37.65;101386.06;5003242;28;789;-62
2022/02/04 02:00:15;;;;;;;;;;;;;;;17.16;37.14;101388.19;5001023;28;902;-63
2022/02/04 02:02:40;;;;;;;;;;;;;;;17.51;36.53;101386.81;4999197;28;861;-64
2022/02/04 02:05:06;;;;;;;;;;;;;;;17.72;35.94;101382.25;4998870;28;806;-60
2022/02/04 02:07:39;;;;;;;;;;;;;;;17.61;35.94;101383.28;4998892;28;1989;-60
2022/02/04 02:10:09;;;;;;;;;;;;;;;17.31;36.76;101390.25;5000447;28;841;-60
2022/02/04 02:12:43;;;;;;;;;;;;;;;16.85;37.44;101398.88;5001107;28;989;-60
2022/02/04 02:35:00;;;;;;;;;;;;;;;16.96;37.19;101388.00;4998540;28;739;-62
2022/02/04 02:40:18;;;;;;;;;;;;;;;16.77;37.37;101405.69;4998114;28;846;-61
2022/02/04 02:50:13;;;;;;;;;;;;;;;16.70;37.60;101396.81;5005264;28;802;-61
2022/02/04 02:56:16;;;;;;;;;;;;;;;17.26;36.69;101407.53;4978728;28;1132;-61
2022/02/04 02:58:33;;;;;;;;;;;;;;;16.88;37.21;101401.13;4997950;28;1540;-61
2022/02/04 03:01:06;;;;;;;;;;;;;;;16.87;37.35;101398.63;5014885;28;1042;-61
2022/02/04 03:03:34;;;;;;;;;;;;;;;16.79;37.60;101399.94;4999357;28;742;-61
2022/02/04 03:06:00;;;;;;;;;;;;;;;16.67;37.74;101402.84;5015593;28;2039;-61
2022/02/04 03:08:26;;;;;;;;;;;;;;;16.81;37.59;101403.25;5016317;28;798;-61
2022/02/04 03:10:53;;;;;;;;;;;;;;;17.25;36.69;101391.28;5016509;28;826;-61
2022/02/04 03:13:28;;;;;;;;;;;;;;;17.55;36.10;101407.19;5016332;28;783;-61
2022/02/04 03:16:03;;;;;;;;;;;;;;;17.71;35.74;101397.13;5004272;28;984;-61
2022/02/04 03:18:31;;;;;;;;;;;;;;;17.23;36.31;101408.03;4996125;28;980;-61
2022/02/04 03:21:04;;;;;;;;;;;;;;;16.91;37.15;101391.56;4997686;28;817;-61
2022/02/04 03:23:32;;;;;;;;;;;;;;;16.84;37.34;101401.91;5016413;28;1143;-61
2022/02/04 03:26:06;;;;;;;;;;;;;;;16.68;37.51;101404.50;5016734;28;1963;-60
2022/02/04 03:28:32;;;;;;;;;;;;;;;16.80;37.52;101407.06;5001451;28;850;-61
2022/02/04 03:30:59;;;;;;;;;;;;;;;17.04;36.83;101404.88;4998779;28;838;-61
2022/02/04 03:33:27;;;;;;;;;;;;;;;17.41;36.19;101404.06;4997288;28;817;-60
2022/02/04 03:35:53;;;;;;;;;;;;;;;17.72;35.52;101400.69;4997629;28;739;-61
2022/02/04 03:38:18;;;;;;;;;;;;;;;17.62;35.82;101399.50;4996916;28;858;-60
2022/02/04 03:40:43;;;;;;;;;;;;;;;17.12;36.56;101398.06;5003304;28;858;-60
2022/02/04 03:43:09;;;;;;;;;;;;;;;16.86;37.17;101407.97;4996735;28;842;-61
2022/02/04 03:45:35;;;;;;;;;;;;;;;16.73;37.55;101410.06;4997905;28;906;-60
2022/02/04 03:48:00;;;;;;;;;;;;;;;16.80;37.15;101409.00;4996983;28;766;-60
2022/02/04 03:50:26;;;;;;;;;;;;;;;16.74;37.30;101417.19;4996818;28;962;-60
2022/02/04 03:52:51;;;;;;;;;;;;;;;16.79;37.43;101418.31;5009290;28;803;-60
2022/02/04 03:55:17;;;;;;;;;;;;;;;16.96;37.26;101419.09;4997196;28;822;-64
2022/02/04 03:57:42;;;;;;;;;;;;;;;17.09;36.57;101421.38;4997259;28;896;-62
2022/02/04 04:00:09;;;;;;;;;;;;;;;17.42;36.03;101413.97;5002691;28;825;-61
2022/02/04 04:02:41;;;;;;;;;;;;;;;17.32;36.42;101419.41;5015161;28;686;-60
2022/02/04 04:05:07;;;;;;;;;;;;;;;17.08;36.58;101418.91;5015256;28;907;-60
2022/02/04 04:07:35;;;;;;;;;;;;;;;16.91;37.05;101425.38;4996975;28;1914;-60
2022/02/04 04:10:09;;;;;;;;;;;;;;;16.70;37.38;101429.75;4996332;28;846;-61
2022/02/04 04:12:34;;;;;;;;;;;;;;;16.69;37.38;101435.53;5009483;28;889;-60
2022/02/04 04:15:05;;;;;;;;;;;;;;;17.44;36.07;101431.00;5000297;28;976;-60
2022/02/04 04:17:38;;;;;;;;;;;;;;;17.68;35.55;101438.06;5008945;28;847;-61
2022/02/04 04:20:03;;;;;;;;;;;;;;;17.04;36.58;101448.84;4996670;28;802;-62
2022/02/04 04:22:29;;;;;;;;;;;;;;;16.70;37.39;101446.25;5009987;28;741;-61
2022/02/04 04:24:54;;;;;;;;;;;;;;;16.69;37.48;101443.75;5008175;28;1709;-63
2022/02/04 04:27:20;;;;;;;;;;;;;;;16.86;37.33;101443.69;4996433;28;1972;-61
2022/02/04 04:29:47;;;;;;;;;;;;;;;17.26;36.43;101435.03;4997868;28;963;-63
2022/02/04 04:32:12;;;;;;;;;;;;;;;17.93;35.28;101435.50;5009644;28;1275;-60
2022/02/04 04:34:38;;;;;;;;;;;;;;;17.41;35.81;101442.53;4998288;28;940;-58
2022/02/04 04:37:05;;;;;;;;;;;;;;;17.19;36.57;101445.38;4996315;28;850;-57
2022/02/04 04:39:37;;;;;;;;;;;;;;;16.73;37.52;101443.00;4998951;28;1256;-59
2022/02/04 04:42:14;;;;;;;;;;;;;;;16.67;37.61;101455.00;4996332;28;870;-61
2022/02/04 05:27:44;;;;;;;;;;;;;;;16.71;36.00;101475.38;4999362;28;1978;-60
2022/02/04 05:29:10;;;;;;;;;;;;;;;16.65;35.87;101468.19;5002845;28;1457;-61
2022/02/04 05:31:35;;;;;;;;;;;;;;;16.54;36.18;101478.19;4999377;28;858;-58
2022/02/04 05:37:23;;;;;;;;;;;;;;;17.33;35.09;101487.00;5015065;28;660;-59
2022/02/04 05:40:03;;;;;;;;;;;;;;;17.88;34.22;101478.63;5018557;28;913;-59
2022/02/04 05:42:32;;;;;;;;;;;;;;;17.38;34.79;101489.00;5018321;28;786;-60
2022/02/04 05:45:05;;;;;;;;;;;;;;;16.85;35.82;101485.97;5013246;28;786;-61
2022/02/04 05:47:32;;;;;;;;;;;;;;;16.61;35.87;101491.75;5003063;28;1918;-60
2022/02/04 05:50:17;;;;;;;;;;;;;;;16.86;35.55;101493.13;4998842;28;819;-59
2022/02/04 05:55:53;;;;;;;;;;;;;;;17.40;34.58;101493.16;5016676;28;862;-57
2022/02/04 06:24:52;;;;;;;;;;;;;;;17.20;35.14;101504.75;5007262;28;1401;-58
2022/02/04 06:27:18;;;;;;;;;;;;;;;16.91;35.72;101509.69;5015633;28;1988;-63
2022/02/04 06:29:44;;;;;;;;;;;;;;;16.80;35.76;101513.38;5009834;28;896;-61
2022/02/04 06:32:09;;;;;;;;;;;;;;;17.16;35.38;101509.13;4996511;28;999;-60
2022/02/04 06:34:35;;;;;;;;;;;;;;;17.84;34.26;101518.75;4997868;28;909;-61
2022/02/04 06:37:00;;;;;;;;;;;;;;;17.23;35.05;101509.72;4998517;28;833;-64
2022/02/04 06:39:26;;;;;;;;;;;;;;;17.02;35.50;101513.38;5002258;28;838;-62
2022/02/04 06:41:51;;;;;;;;;;;;;;;16.89;35.97;101515.44;4998225;28;798;-63
2022/02/04 06:44:16;;;;;;;;;;;;;;;16.73;36.04;101514.41;5002703;28;750;-57
2022/02/04 06:46:42;;;;;;;;;;;;;;;16.82;35.97;101506.53;5004958;28;1981;-59
2022/02/04 06:49:07;;;;;;;;;;;;;;;17.14;35.43;101519.56;5003510;28;1449;-58
2022/02/04 06:51:33;;;;;;;;;;;;;;;17.38;35.02;101514.56;5016433;28;1272;-65
2022/02/04 06:53:59;;;;;;;;;;;;;;;17.77;34.27;101519.81;5010591;28;1339;-59
2022/02/04 06:56:24;;;;;;;;;;;;;;;17.55;34.58;101516.34;5012902;28;1591;-59
2022/02/04 06:58:50;;;;;;;;;;;;;;;17.21;35.16;101516.59;5016705;28;1219;-59
2022/02/04 07:01:15;;;;;;;;;;;;;;;16.84;36.06;101518.09;5015272;28;1359;-59
2022/02/04 07:03:41;;;;;;;;;;;;;;;16.95;35.73;101513.56;5009783;28;1243;-59
2022/02/04 07:06:07;;;;;;;;;;;;;;;16.83;36.10;101516.44;5000540;28;1906;-60
2022/02/04 07:08:47;;;;;;;;;;;;;;;16.91;36.06;101517.91;5018504;28;1520;-60
2022/02/04 07:16:56;;;;;;;;;;;;;;;17.65;34.73;101508.19;4999840;28;1141;-60
2022/02/04 07:22:05;;;;;;;;;;;;;;;17.44;34.98;101512.69;5006261;28;1406;-60
2022/02/04 07:24:31;;;;;;;;;;;;;;;17.19;35.24;101508.59;4998661;28;1228;-57
2022/02/04 07:26:56;;;;;;;;;;;;;;;17.12;35.33;101512.66;5006557;28;1981;-59
2022/02/04 07:42:47;;;;;;;;;;;;;;;17.10;35.49;101500.00;4980730;28;1211;-65
2022/02/04 07:45:12;;;;;;;;;;;;;;;16.97;36.03;101510.56;4987455;28;1218;-61
2022/02/04 07:47:38;;;;;;;;;;;;;;;16.78;36.34;101505.38;4988075;28;1902;-63
2022/02/04 07:50:04;;;;;;;;;;;;;;;16.83;36.41;101494.47;4985255;28;1554;-61
2022/02/04 07:52:30;;;;;;;;;;;;;;;16.70;36.47;101501.16;4988091;28;1013;-62
2022/02/04 07:54:55;;;;;;;;;;;;;;;16.98;35.96;101493.81;4980259;28;1393;-61
2022/02/04 07:57:20;;;;;;;;;;;;;;;17.37;35.34;101495.56;4998726;28;1502;-64
2022/02/04 07:59:47;;;;;;;;;;;;;;;17.60;34.97;101492.47;4988096;28;1325;-60
2022/02/04 08:02:13;;;;;;;;;;;;;;;17.77;34.73;101486.81;4983654;28;1321;-64
2022/02/04 08:04:40;;;;;;;;;;;;;;;17.46;34.97;101491.25;4986744;28;1415;-68
2022/02/04 08:07:11;;;;;;;;;;;;;;;17.12;35.88;101486.00;4984457;28;1922;-67
2022/02/04 08:10:03;;;;;;;;;;;;;;;16.91;36.37;101483.06;4989578;28;1380;-66
2022/02/04 08:30:55;;;;;;;;;;;;;;;17.93;34.88;101481.44;4990309;28;1440;-68
2022/02/04 08:54:43;;;;;;;;;;;;;;;17.71;35.41;101460.38;4960106;28;1441;-66
2022/02/04 09:02:59;;;;;;;;;;;;;;;16.78;36.98;101447.72;4961385;28;1716;-67
2022/02/04 09:05:16;;;;;;;;;;;;;;;17.07;37.04;101451.06;4952020;28;1452;-66
2022/02/04 09:07:53;;;;;;;;;;;;;;;17.02;37.14;101442.75;4963967;28;1906;-64
2022/02/04 09:10:23;;;;;;;;;;;;;;;17.68;35.49;101443.56;4962933;28;1662;-64
2022/02/04 09:18:35;;;;;;;;;;;;;;;17.41;35.97;101438.97;4971678;28;1247;-66
2022/02/04 09:23:22;;;;;;;;;;;;;;;18.17;34.31;101437.00;4962510;28;1277;-68
2022/02/04 09:25:48;;;;;;;;;;;;;;;17.74;35.46;101435.09;4958358;28;1184;-68
2022/02/04 09:28:13;;;;;;;;;;;;;;;18.31;34.53;101435.41;4967148;28;1334;-67
2022/02/04 09:30:39;;;;;;;;;;;;;;;18.62;33.77;101430.84;4969973;28;1050;-67
2022/02/04 09:33:05;;;;;;;;;;;;;;;18.48;33.98;101426.91;4988673;28;1225;-67
2022/02/04 09:35:30;;;;;;;;;;;;;;;18.06;34.67;101423.19;4993204;28;1224;-68
2022/02/04 09:37:56;;;;;;;;;;;;;;;17.72;35.20;101409.75;4983031;28;1355;-70
2022/02/04 09:40:21;;;;;;;;;;;;;;;17.54;35.71;101418.44;4976160;28;917;-68
2022/02/04 09:42:47;;;;;;;;;;;;;;;17.09;36.83;101412.31;4978151;28;859;-66
2022/02/04 09:45:13;;;;;;;;;;;;;;;16.88;36.65;101401.13;4982005;28;990;-69
2022/02/04 09:47:41;;;;;;;;;;;;;;;16.88;37.03;101408.53;4990052;28;1930;-66
2022/02/04 09:50:14;;;;;;;;;;;;;;;17.42;36.13;101408.47;4983657;28;1277;-66
2022/02/04 10:19:29;;;;;;;;;;;;;;;17.81;35.55;101387.25;4985021;28;1262;-65
2022/02/04 10:21:55;;;;;;;;;;;;;;;16.97;37.13;101378.69;4986907;28;1241;-64
2022/02/04 10:24:23;;;;;;;;;;;;;;;17.43;36.06;101385.38;4986308;28;1355;-66
2022/02/04 10:26:48;;;;;;;;;;;;;;;17.53;36.05;101381.88;4983873;28;1976;-63
2022/02/04 10:29:19;;;;;;;;;;;;;;;17.61;35.37;101380.53;4976935;28;1431;-64
2022/02/04 10:31:47;;;;;;;;;;;;;;;17.57;35.39;101373.91;4975985;28;1324;-67
2022/02/04 10:34:22;;;;;;;;;;;;;;;17.65;35.36;101370.66;4970033;28;1126;-66
2022/02/04 10:36:54;;;;;;;;;;;;;;;17.64;35.65;101366.25;4989087;28;1337;-67
2022/02/04 10:45:19;;;;;;;;;;;;;;;17.59;35.53;101358.81;4986319;28;1298;-66
2022/02/04 10:47:56;;;;;;;;;;;;;;;17.62;35.57;101346.44;4982392;28;1906;-66
2022/02/04 10:50:39;;;;;;;;;;;;;;;17.60;35.43;101334.91;4982857;28;1247;-68
2022/02/04 11:04:17;;;;;;;;;;;;;;;17.52;35.36;101321.66;4995471;28;1388;-70
2022/02/04 11:11:49;;;;;;;;;;;;;;;17.54;35.42;101319.44;4978411;28;1026;-66
2022/02/04 11:36:07;;;;;;;;;;;;;;;17.74;34.32;101292.06;4968634;28;835;-66
2022/02/04 11:52:06;;;;;;;;;;;;;;;17.73;35.07;101271.13;4984731;28;1538;-65
2022/02/04 11:54:33;;;;;;;;;;;;;;;17.64;35.07;101270.00;4979823;28;1377;-67
2022/02/04 11:57:01;;;;;;;;;;;;;;;17.70;35.32;101266.19;4991281;28;1245;-66
2022/02/04 11:59:36;;;;;;;;;;;;;;;17.72;35.17;101269.47;4980524;28;1396;-64
2022/02/04 12:02:02;;;;;;;;;;;;;;;17.79;35.00;101277.50;4987033;28;1266;-66
2022/02/04 12:04:27;;;;;;;;;;;;;;;17.73;35.25;101268.38;4983238;28;1293;-65
2022/02/04 12:06:55;;;;;;;;;;;;;;;17.67;35.35;101255.72;4981402;28;1911;-65
2022/02/04 12:09:30;;;;;;;;;;;;;;;17.60;35.21;101260.66;4982431;28;1260;-65
2022/02/04 12:11:56;;;;;;;;;;;;;;;17.61;35.35;101265.88;4979398;28;1191;-66
2022/02/04 12:14:21;;;;;;;;;;;;;;;17.57;35.44;101262.00;4972020;28;1473;-67
2022/02/04 12:17:03;;;;;;;;;;;;;;;17.55;35.69;101269.69;4958459;28;1370;-66
2022/02/04 12:19:46;;;;;;;;;;;;;;;17.63;35.33;101271.09;4979679;28;1313;-64
2022/02/04 12:22:12;;;;;;;;;;;;;;;17.54;35.61;101257.03;4981449;28;1195;-63
2022/02/04 12:24:38;;;;;;;;;;;;;;;17.62;35.55;101262.00;4976149;28;1519;-66
2022/02/04 12:27:22;;;;;;;;;;;;;;;17.51;35.35;101256.75;4976682;28;1973;-66
2022/02/04 12:29:47;;;;;;;;;;;;;;;17.39;35.86;101252.31;4988977;28;1412;-61
2022/02/04 12:32:17;;;;;;;;;;;;;;;17.36;35.91;101246.50;4979803;28;1318;-64
2022/02/04 12:34:46;;;;;;;;;;;;;;;17.43;35.50;101269.06;4967533;28;1575;-62
2022/02/04 12:37:12;;;;;;;;;;;;;;;17.36;35.55;101268.50;4976720;28;851;-62
2022/02/04 12:39:37;;;;;;;;;;;;;;;17.37;35.58;101262.72;4963066;28;1355;-62
2022/02/04 12:42:03;;;;;;;;;;;;;;;17.45;35.37;101264.16;4975868;28;1329;-61
2022/02/04 12:44:32;;;;;;;;;;;;;;;17.56;34.81;101260.34;4977586;28;1159;-61
2022/02/04 12:47:02;;;;;;;;;;;;;;;17.42;35.39;101259.19;4968107;28;1973;-60
2022/02/04 12:49:28;;;;;;;;;;;;;;;16.80;36.71;101260.69;4975343;28;1252;-63
2022/02/04 12:52:08;;;;;;;;;;;;;;;17.71;35.31;101267.00;4985175;28;1389;-60
2022/02/04 12:54:50;;;;;;;;;;;;;;;18.70;33.62;101253.16;4984559;28;1121;-60
2022/02/04 13:10:16;;;;;;;;;;;;;;;17.97;36.21;101247.88;4976337;28;1433;-69
2022/02/04 13:12:51;;;;;;;;;;;;;;;17.63;37.01;101240.84;4983381;28;1170;-59
2022/02/04 13:15:17;;;;;;;;;;;;;;;17.32;37.34;101237.97;4983861;28;1187;-63
2022/02/04 13:17:42;;;;;;;;;;;;;;;17.14;37.88;101236.50;4987199;28;1216;-64
2022/02/04 13:20:08;;;;;;;;;;;;;;;17.40;37.27;101239.38;4986954;28;1156;-64
2022/02/04 13:22:36;;;;;;;;;;;;;;;17.60;36.62;101228.47;4986525;28;1006;-62
2022/02/04 13:25:20;;;;;;;;;;;;;;;17.84;36.56;101235.41;4965301;28;1255;-64
2022/02/04 13:28:02;;;;;;;;;;;;;;;18.04;35.85;101232.75;4986544;28;1914;-63
2022/02/04 13:30:28;;;;;;;;;;;;;;;18.18;35.78;101235.78;4988034;28;1256;-63
2022/02/04 13:32:54;;;;;;;;;;;;;;;18.24;35.55;101236.63;4986434;28;1212;-61
2022/02/04 13:35:26;;;;;;;;;;;;;;;18.27;35.39;101230.56;4990546;28;1240;-66
2022/02/04 13:37:54;;;;;;;;;;;;;;;18.38;35.14;101232.22;4985145;28;1421;-60
2022/02/04 13:40:28;;;;;;;;;;;;;;;18.56;34.95;101230.03;4988768;28;1515;-62
2022/02/04 13:43:01;;;;;;;;;;;;;;;18.65;34.78;101225.63;4982784;28;1424;-62
2022/02/04 13:45:38;;;;;;;;;;;;;;;18.88;34.31;101217.91;4985516;28;1125;-62
2022/02/04 13:48:16;;;;;;;;;;;;;;;18.59;34.41;101223.97;4981440;28;1910;-65
2022/02/04 13:56:12;;;;;;;;;;;;;;;17.50;36.61;101211.09;4987008;28;1279;-64
2022/02/04 13:58:52;;;;;;;;;;;;;;;17.02;37.36;101213.91;4991468;28;1361;-61
2022/02/04 14:01:27;;;;;;;;;;;;;;;16.81;38.08;101213.72;4980514;28;1263;-60
2022/02/04 14:03:57;;;;;;;;;;;;;;;17.62;36.75;101219.94;4987185;28;1393;-60
2022/02/04 14:06:28;;;;;;;;;;;;;;;18.70;34.47;101208.25;4979255;28;1908;-60
2022/02/04 14:11:28;;;;;;;;;;;;;;;18.37;34.78;101211.31;4984028;28;1221;-60
2022/02/04 14:13:54;;;;;;;;;;;;;;;17.87;35.93;101216.44;4989676;28;1363;-60
2022/02/04 14:16:20;;;;;;;;;;;;;;;17.68;36.29;101209.78;4990172;28;1180;-62
2022/02/04 14:18:45;;;;;;;;;;;;;;;17.41;36.78;101205.31;4991954;28;1361;-61
2022/02/04 14:21:10;;;;;;;;;;;;;;;17.36;36.78;101208.88;4996850;28;1347;-61
2022/02/04 14:23:36;;;;;;;;;;;;;;;17.33;36.78;101200.31;4988235;28;1527;-61
2022/02/04 14:28:39;;;;;;;;;;;;;;;17.89;35.90;101222.53;4985476;28;1107;-61
2022/02/04 14:31:20;;;;;;;;;;;;;;;18.35;34.98;101205.25;4984173;28;1139;-64
2022/02/04 14:36:21;;;;;;;;;;;;;;;19.01;33.56;101214.56;4982471;28;1216;-62
2022/02/04 15:00:52;;;;;;;;;;;;;;;17.64;36.13;101201.25;4984635;28;1006;-57
2022/02/04 15:03:24;;;;;;;;;;;;;;;17.18;37.12;101198.31;4979494;28;818;-58
2022/02/04 15:06:02;;;;;;;;;;;;;;;17.01;37.59;101210.34;4978692;28;812;-58
2022/02/04 15:08:27;;;;;;;;;;;;;;;17.01;37.71;101207.59;4980719;28;1620;-58
2022/02/04 15:10:54;;;;;;;;;;;;;;;18.35;35.08;101218.19;4979182;28;870;-58
2022/02/04 15:13:20;;;;;;;;;;;;;;;19.19;33.46;101217.84;4961589;28;830;-58
2022/02/04 15:15:45;;;;;;;;;;;;;;;18.76;34.16;101210.75;4984183;28;896;-59
2022/02/04 15:18:11;;;;;;;;;;;;;;;17.85;35.86;101217.81;4978913;28;763;-58
2022/02/04 15:20:36;;;;;;;;;;;;;;;17.34;36.82;101211.03;4984329;28;750;-59
2022/02/04 15:23:02;;;;;;;;;;;;;;;17.06;37.64;101209.53;4979640;28;1027;-58
2022/02/04 15:25:27;;;;;;;;;;;;;;;17.31;37.13;101214.31;4981335;28;1228;-62
2022/02/04 15:30:25;;;;;;;;;;;;;;;18.52;34.43;101215.16;4984876;28;1308;-60
2022/02/04 15:32:52;;;;;;;;;;;;;;;18.57;34.26;101228.94;4985900;28;1210;-62
2022/02/04 15:35:17;;;;;;;;;;;;;;;17.74;35.91;101226.03;4979055;28;1286;-61
2022/02/04 15:37:43;;;;;;;;;;;;;;;17.58;36.30;101229.84;4978912;28;818;-59
2022/02/04 15:40:09;;;;;;;;;;;;;;;17.48;36.24;101229.81;4980708;28;1043;-60
2022/02/04 15:42:37;;;;;;;;;;;;;;;17.37;36.30;101240.72;4979842;28;1208;-60
2022/02/04 15:48:39;;;;;;;;;;;;;;;17.18;36.48;101231.28;4994846;28;1913;-60
2022/02/04 15:59:27;;;;;;;;;;;;;;;18.27;34.63;101236.06;4980754;28;817;-58
2022/02/04 16:03:51;;;;;;;;;;;;;;;18.15;34.66;101232.78;4981784;28;1207;-58
2022/02/04 16:06:19;;;;;;;;;;;;;;;17.95;35.08;101221.44;4983951;28;1967;-58
2022/02/04 16:08:45;;;;;;;;;;;;;;;17.93;35.16;101225.56;4988346;28;746;-59
2022/02/04 16:11:19;;;;;;;;;;;;;;;17.95;35.10;101224.19;4983392;28;980;-59
2022/02/04 16:13:52;;;;;;;;;;;;;;;18.03;34.77;101231.06;4978599;28;890;-59
2022/02/04 16:16:23;;;;;;;;;;;;;;;18.00;34.91;101226.13;4982065;28;811;-56
2022/02/04 16:21:41;;;;;;;;;;;;;;;18.07;34.75;101225.88;4981427;28;1099;-61
2022/02/04 16:26:49;;;;;;;;;;;;;;;17.51;35.85;101226.50;4986496;28;1972;-61
2022/02/04 16:29:15;;;;;;;;;;;;;;;17.69;35.73;101220.53;4983085;28;1162;-57
2022/02/04 16:31:41;;;;;;;;;;;;;;;17.99;34.81;101224.47;4982153;28;1303;-58
2022/02/04 16:34:09;;;;;;;;;;;;;;;18.34;34.26;101217.38;4978805;28;1181;-58
2022/02/04 16:36:43;;;;;;;;;;;;;;;18.28;34.33;101215.72;4982445;28;1280;-56
2022/02/04 16:39:10;;;;;;;;;;;;;;;18.41;34.13;101217.94;4980463;28;1228;-57
2022/02/04 16:44:33;;;;;;;;;;;;;;;18.58;34.13;101216.78;4964684;28;1130;-56
2022/02/04 16:47:00;;;;;;;;;;;;;;;18.59;33.83;101212.94;4977922;28;1976;-58
2022/02/04 16:49:26;;;;;;;;;;;;;;;18.58;34.11;101214.88;4982613;28;817;-57
2022/02/04 16:51:51;;;;;;;;;;;;;;;18.13;34.87;101206.34;4978957;28;947;-55
2022/02/04 16:54:18;;;;;;;;;;;;;;;17.83;35.44;101220.03;4988504;28;985;-57
2022/02/04 16:56:44;;;;;;;;;;;;;;;17.49;35.90;101214.94;4982222;28;991;-58
2022/02/04 16:59:10;;;;;;;;;;;;;;;17.30;36.26;101218.16;4998115;28;858;-57
2022/02/04 17:01:36;;;;;;;;;;;;;;;17.07;36.90;101214.75;4985520;28;820;-57
2022/02/04 17:04:03;;;;;;;;;;;;;;;17.05;36.75;101216.94;4987357;28;828;-56
2022/02/04 17:06:34;;;;;;;;;;;;;;;17.22;36.65;101215.91;4994464;28;1906;-58
2022/02/04 17:09:19;;;;;;;;;;;;;;;18.05;35.04;101217.88;4981632;28;928;-56
2022/02/04 17:11:46;;;;;;;;;;;;;;;17.90;35.08;101224.16;4994769;28;775;-56
2022/02/04 17:14:12;;;;;;;;;;;;;;;17.67;35.54;101225.47;4999692;28;858;-56
2022/02/04 17:16:42;;;;;;;;;;;;;;;17.70;35.62;101230.44;4981635;28;830;-56
2022/02/04 17:19:11;;;;;;;;;;;;;;;17.60;35.77;101228.47;4993746;28;815;-56
2022/02/04 17:21:37;;;;;;;;;;;;;;;17.54;35.97;101228.72;4981065;28;874;-57
2022/02/04 17:24:04;;;;;;;;;;;;;;;17.47;36.08;101226.22;4981403;28;1565;-57
2022/02/04 17:26:29;;;;;;;;;;;;;;;17.43;36.13;101225.94;4980936;28;1927;-57
2022/02/04 17:28:55;;;;;;;;;;;;;;;17.26;36.36;101233.53;4994688;28;803;-57
2022/02/04 17:31:20;;;;;;;;;;;;;;;17.30;36.26;101229.16;4985921;28;1160;-57
2022/02/04 17:33:46;;;;;;;;;;;;;;;17.60;35.79;101235.91;4998534;28;786;-57
2022/02/04 17:36:11;;;;;;;;;;;;;;;18.03;35.00;101231.06;4987060;28;806;-56
2022/02/04 17:38:37;;;;;;;;;;;;;;;18.21;34.55;101238.00;4980053;28;878;-58
2022/02/04 17:41:03;;;;;;;;;;;;;;;18.06;34.87;101238.81;4981556;28;929;-57
2022/02/04 17:43:28;;;;;;;;;;;;;;;17.76;35.66;101226.59;4981498;28;867;-56
2022/02/04 17:45:54;;;;;;;;;;;;;;;17.64;35.88;101225.19;4991422;28;849;-56
2022/02/04 17:48:23;;;;;;;;;;;;;;;17.60;35.66;101222.97;4998947;28;1911;-55
2022/02/04 17:50:57;;;;;;;;;;;;;;;17.50;36.11;101222.09;4999481;28;770;-55
2022/02/04 17:53:27;;;;;;;;;;;;;;;17.50;36.12;101222.09;4994038;28;730;-56
2022/02/04 17:56:04;;;;;;;;;;;;;;;17.39;36.37;101222.06;4980814;28;818;-55
2022/02/04 17:59:00;;;;;;;;;;;;;;;17.36;36.36;101227.25;4993380;28;902;-56
2022/02/04 18:09:35;;;;;;;;;;;;;;;17.71;35.44;101217.50;4980226;28;807;-56
2022/02/04 18:12:01;;;;;;;;;;;;;;;17.85;35.50;101220.56;4980473;28;831;-57
2022/02/04 18:14:26;;;;;;;;;;;;;;;18.11;34.83;101216.78;4983042;28;822;-59
2022/02/04 18:16:52;;;;;;;;;;;;;;;18.13;34.85;101219.25;4980788;28;1003;-59
2022/02/04 18:19:17;;;;;;;;;;;;;;;18.30;34.55;101224.53;4983948;28;762;-58
2022/02/04 18:21:43;;;;;;;;;;;;;;;18.35;34.39;101224.50;4979927;28;894;-59
2022/02/04 18:24:08;;;;;;;;;;;;;;;18.30;34.67;101219.84;4988322;28;914;-57
2022/02/04 18:26:34;;;;;;;;;;;;;;;18.40;34.27;101231.97;4980229;28;1968;-57
2022/02/04 18:29:00;;;;;;;;;;;;;;;18.50;34.32;101220.13;4980802;28;901;-56
2022/02/04 18:31:27;;;;;;;;;;;;;;;18.44;34.09;101213.81;4979677;28;1094;-57
2022/02/04 18:33:53;;;;;;;;;;;;;;;18.43;34.54;101221.22;4979764;28;848;-59
2022/02/04 18:36:18;;;;;;;;;;;;;;;18.49;34.43;101215.72;4980432;28;866;-59
2022/02/04 18:38:51;;;;;;;;;;;;;;;18.17;34.91;101219.56;4979771;28;820;-57
2022/02/04 18:44:05;;;;;;;;;;;;;;;17.49;35.85;101221.28;4984265;28;835;-59
2022/02/04 18:59:32;;;;;;;;;;;;;;;17.84;35.17;101211.50;4981531;28;1216;-59
2022/02/04 19:01:58;;;;;;;;;;;;;;;17.52;36.16;101212.50;4998221;28;830;-62
2022/02/04 19:04:33;;;;;;;;;;;;;;;17.16;36.75;101214.25;4998082;28;850;-60
2022/02/04 19:07:04;;;;;;;;;;;;;;;16.95;36.92;101205.06;4986634;28;1910;-60
2022/02/04 19:09:31;;;;;;;;;;;;;;;16.74;36.79;101207.66;4982615;28;1038;-62
2022/02/04 19:12:10;;;;;;;;;;;;;;;16.99;37.26;101212.50;4979270;28;980;-60
2022/02/04 19:17:13;;;;;;;;;;;;;;;17.24;36.80;101202.75;4979210;28;958;-59
2022/02/04 19:19:50;;;;;;;;;;;;;;;17.06;36.71;101202.09;4984876;28;975;-58
2022/02/04 19:23:01;;;;;;;;;;;;;;;16.79;37.44;101201.34;4985630;28;1335;-59
2022/02/04 19:25:07;;;;;;;;;;;;;;;16.66;37.82;101206.25;4970855;28;1584;-58
2022/02/04 19:27:33;;;;;;;;;;;;;;;16.79;37.41;101201.34;4981890;28;1910;-61
2022/02/04 19:29:58;;;;;;;;;;;;;;;16.71;37.73;101200.75;4981519;28;1308;-60
2022/02/04 19:32:24;;;;;;;;;;;;;;;16.86;37.11;101186.31;4981276;28;1217;-61
2022/02/04 19:34:50;;;;;;;;;;;;;;;16.93;36.99;101181.44;4980526;28;1011;-59
2022/02/04 19:37:15;;;;;;;;;;;;;;;17.19;36.58;101188.97;4980199;28;1482;-60
2022/02/04 19:39:45;;;;;;;;;;;;;;;17.42;36.28;101191.28;4982317;28;1245;-60
2022/02/04 19:44:51;;;;;;;;;;;;;;;17.07;36.59;101192.78;4981783;28;1062;-60
2022/02/04 19:47:24;;;;;;;;;;;;;;;16.87;37.14;101196.22;4980002;28;1975;-59
2022/02/04 19:52:38;;;;;;;;;;;;;;;16.70;37.53;101192.78;4997032;28;858;-59
2022/02/04 19:55:41;;;;;;;;;;;;;;;16.66;37.61;101192.50;4987475;28;967;-60
2022/02/04 20:17:48;;;;;;;;;;;;;;;16.86;37.17;101169.81;4978230;28;839;-59
2022/02/04 20:25:23;;;;;;;;;;;;;;;17.70;35.35;101163.59;4996377;28;788;-59
2022/02/04 20:27:51;;;;;;;;;;;;;;;17.12;36.36;101163.66;4977467;28;1973;-59
2022/02/04 20:30:16;;;;;;;;;;;;;;;16.79;37.05;101166.50;4984059;28;723;-60
2022/02/04 20:32:42;;;;;;;;;;;;;;;16.72;37.35;101163.97;4977954;28;1117;-59